Delray Beach, FL

6:52 PM EST on December 19, 2014 (GMT -0500)
Palm Beach International | Change Station
CLOSE
Current Station
Airport
Location: West Palm Beach,
Elevation: 20 ft
Nearby Weather Stations

Elev 20 ft 26.68 °N, 80.10 °W | Updated 59 minutes ago

Partly Cloudy
Partly Cloudy
74 °F
Feels Like 74 °F
N
9
Wind Variable Wind from East

Today
High -- | Low -- °F
--% Chance of Precip.
Yesterday
High -- | Low -- °F
Precip. -- in
7:03 AM 5:31 PM
Waning Crescent, 5% visible
Pressure 30.04 in
Visibility 10.0 miles
Clouds Scattered Clouds 3000 ft
Mostly Cloudy 5000 ft
Mostly Cloudy 25000 ft
Dew Point 62 °F
Humidity 66%
Rainfall 0.00 in
Snow Depth Not available.
UV 0 out of 12
Pollen 4.00 out of 12
Air Quality Not available.
Flu Activity Not available.
METAR KPBI 192253Z 10008KT 10SM SCT030 BKN050 BKN250 23/17 A3004 RMK AO2 SLP170 T02330167

More Conditions Fewer Conditions

Pressure 30.04 in
Visibility 10.0 miles
Clouds Scattered Clouds 3000 ft
Mostly Cloudy 5000 ft
Mostly Cloudy 25000 ft
Dew Point 62 °F
Humidity 66%
Rainfall 0.00 in
Snow Depth Not available.
UV 0 out of 12
Pollen 4.00 out of 12
Air Quality Not available.
Flu Activity Not available.
METAR KPBI 192253Z 10008KT 10SM SCT030 BKN050 BKN250 23/17 A3004 RMK AO2 SLP170 T02330167

More Conditions Fewer Conditions

10-Day Weather Forecast

Almanac

Astronomy

Dec. 19, 2014 Rise Set
Actual Time
Civil Twilight
Nautical Twilight
Astronomical Twilight
Moon
Length of Visible Light
Length of Day
Tomorrow will be .
, % of the Moon is Illuminated

Today's Extremes

State Highs State Lows

Community

WunderPhotos

Upload Photos

1,779,078 photos uploaded!

WunderBlogs® & News

Nearby

Air Quality

  Air Quality AQ Index Pollutant
Not available.

Snow Depth

Station Depth Elevation

Earthquake Activity

City Distance Mag. Time & Date
Minimum magnitude displayed is 2.5.

Coastal Water Temperatures

Place Temperature

Nearby Weather Stations